Time;durP1;ratioP1;P1;durP2;ratioP2;P2;SDS_P1;SDS_P2;PMS_P1;PMS_P2;Temp;Humidity;BMP_temperature;BMP_pressure;BME280_temperature;BME280_humidity;BME280_pressure;Samples;Min_cycle;Max_cycle;Signal;HPM_P1;HPM_P2
2023/01/10 00:01:55;;;;;;;;;36.00;32.00;;;;;12.99;61.40;97768.75;6313639;27;96768;-61
2023/01/10 00:04:58;;;;;;;;;36.50;32.00;;;;;13.00;61.34;97773.06;6314607;27;96985;-61
2023/01/10 00:08:04;;;;;;;;;36.00;30.00;;;;;12.99;61.33;97781.44;6315384;27;96286;-61
2023/01/10 00:14:27;;;;;;;;;32.60;30.00;;;;;12.95;61.35;97788.47;6310664;27;97276;-62
2023/01/10 00:17:30;;;;;;;;;33.25;30.00;;;;;12.94;61.12;97784.13;6300026;27;96215;-61
2023/01/10 00:20:34;;;;;;;;;34.75;31.50;;;;;12.92;61.22;97787.09;6314650;27;96228;-62
2023/01/10 00:23:39;;;;;;;;;32.20;29.00;;;;;12.93;61.04;97785.22;6314215;27;96490;-61
2023/01/10 00:26:45;;;;;;;;;28.40;26.40;;;;;12.93;61.01;97790.63;6315340;27;96230;-60
2023/01/10 00:29:51;;;;;;;;;29.80;27.80;;;;;12.93;60.48;97791.44;6313652;27;96052;-61
2023/01/10 00:32:55;;;;;;;;;31.25;28.25;;;;;12.90;60.45;97805.47;6313304;27;96299;-61
2023/01/10 00:35:59;;;;;;;;;26.00;25.25;;;;;12.85;60.35;97794.63;6313302;27;96785;-61
2023/01/10 00:39:11;;;;;;;;;28.40;25.40;;;;;12.85;60.20;97796.53;6312669;27;96815;-62
2023/01/10 00:45:35;;;;;;;;;28.00;26.00;;;;;12.79;60.72;97808.41;6314722;27;95946;-61
2023/01/10 00:48:39;;;;;;;;;29.00;27.60;;;;;12.72;60.97;97805.91;6314132;27;96408;-60
2023/01/10 00:51:44;;;;;;;;;27.00;25.00;;;;;12.70;61.05;97799.97;6310157;27;96306;-60
2023/01/10 00:54:48;;;;;;;;;29.50;27.50;;;;;12.75;61.34;97815.41;6313490;27;96597;-61
2023/01/10 00:57:52;;;;;;;;;29.00;26.00;;;;;12.75;61.47;97810.81;6314677;27;96390;-61
2023/01/10 01:00:55;;;;;;;;;26.60;24.60;;;;;12.78;61.59;97826.50;6304785;27;96177;-61
2023/01/10 01:03:59;;;;;;;;;27.00;25.00;;;;;12.77;61.73;97840.28;6310146;27;96505;-61
2023/01/10 01:07:03;;;;;;;;;26.50;26.00;;;;;12.74;61.20;97821.88;6315550;27;96345;-62
2023/01/10 01:10:27;;;;;;;;;27.00;25.00;;;;;12.74;61.23;97825.41;6314684;27;96245;-63
2023/01/10 01:13:31;;;;;;;;;27.60;24.60;;;;;12.73;61.33;97834.59;6301960;27;96325;-61
2023/01/10 01:16:34;;;;;;;;;26.50;24.75;;;;;12.73;61.46;97836.47;6307499;27;96987;-60
2023/01/10 01:19:38;;;;;;;;;29.20;27.20;;;;;12.72;61.61;97834.84;6304738;27;96410;-60
2023/01/10 01:22:41;;;;;;;;;28.75;26.50;;;;;12.70;61.35;97832.41;6300297;27;96334;-60
2023/01/10 01:25:46;;;;;;;;;29.00;27.00;;;;;12.69;61.51;97836.19;6314785;27;96240;-62
2023/01/10 01:28:49;;;;;;;;;29.60;27.60;;;;;12.69;61.59;97838.91;6315049;27;97020;-62
2023/01/10 01:31:53;;;;;;;;;30.00;27.00;;;;;12.61;61.52;97820.44;6314360;27;96196;-62
2023/01/10 01:34:56;;;;;;;;;30.00;24.00;;;;;12.70;61.29;97834.31;6314829;27;96253;-62
2023/01/10 01:37:59;;;;;;;;;29.00;26.00;;;;;12.69;61.33;97833.50;6296622;27;97213;-62
2023/01/10 01:41:55;;;;;;;;;28.60;27.00;;;;;12.67;61.36;97840.22;6313718;27;96269;-62
2023/01/10 01:44:31;;;;;;;;;23.60;23.00;;;;;12.63;61.40;97831.00;6313240;27;96951;-61
2023/01/10 01:47:41;;;;;;;;;26.25;25.00;;;;;12.62;61.53;97841.00;6301332;27;96418;-61
2023/01/10 01:50:49;;;;;;;;;28.40;25.40;;;;;12.61;61.35;97839.38;6315318;27;96460;-61
2023/01/10 01:53:57;;;;;;;;;26.00;25.00;;;;;12.56;61.69;97842.84;6318794;27;97191;-60
2023/01/10 01:57:07;;;;;;;;;24.00;22.00;;;;;12.53;61.71;97846.09;6319288;27;96857;-61
2023/01/10 02:00:13;;;;;;;;;28.40;25.60;;;;;12.53;61.87;97848.78;6318186;27;96800;-61
2023/01/10 02:03:16;;;;;;;;;25.80;23.40;;;;;12.51;61.95;97847.44;6308222;27;96282;-62
2023/01/10 02:06:23;;;;;;;;;28.00;24.00;;;;;12.52;61.99;97854.44;6318434;27;96364;-60
2023/01/10 02:09:34;;;;;;;;;27.60;25.00;;;;;12.41;61.93;97831.13;6317913;27;96336;-61
2023/01/10 02:12:40;;;;;;;;;23.80;22.60;;;;;12.50;61.86;97853.91;6317148;27;96400;-60
2023/01/10 02:15:43;;;;;;;;;26.00;24.00;;;;;12.50;61.66;97856.59;6317768;27;96346;-62
2023/01/10 02:18:47;;;;;;;;;26.40;25.00;;;;;12.47;61.47;97852.53;6316117;27;99176;-62
2023/01/10 02:22:26;;;;;;;;;26.20;24.60;;;;;12.53;61.37;97858.78;6311041;27;96254;-61
2023/01/10 02:26:15;;;;;;;;;25.60;23.40;;;;;12.48;61.51;97854.16;6314328;27;96348;-61
2023/01/10 02:30:02;;;;;;;;;23.00;21.60;;;;;12.49;61.47;97863.09;6314215;27;96276;-62
2023/01/10 02:33:14;;;;;;;;;24.75;22.50;;;;;12.44;61.31;97871.97;6302901;27;96355;-62
2023/01/10 02:36:31;;;;;;;;;25.00;21.20;;;;;12.41;61.76;97861.66;6317055;27;96321;-61
2023/01/10 02:39:41;;;;;;;;;20.00;20.00;;;;;12.41;61.68;97866.28;6318354;27;96868;-61
2023/01/10 02:42:52;;;;;;;;;24.20;21.00;;;;;12.23;61.81;97845.84;6315002;27;96954;-60
2023/01/10 02:45:59;;;;;;;;;23.25;20.00;;;;;12.39;61.78;97869.22;6316112;27;96401;-60
2023/01/10 02:49:04;;;;;;;;;22.80;20.20;;;;;12.39;61.63;97871.94;6307372;27;96588;-60
2023/01/10 02:52:08;;;;;;;;;22.40;21.40;;;;;12.38;61.76;97880.28;6304082;27;96311;-61
2023/01/10 02:55:11;;;;;;;;;21.40;20.00;;;;;12.37;61.57;97879.47;6317632;27;96350;-60
2023/01/10 02:58:28;;;;;;;;;22.00;20.75;;;;;12.34;61.88;97879.16;6317570;27;96319;-61
2023/01/10 03:01:41;;;;;;;;;22.00;20.00;;;;;12.35;61.42;97886.22;6313270;27;96500;-61
2023/01/10 03:04:55;;;;;;;;;21.00;20.00;;;;;12.26;61.61;97879.66;6290423;27;97353;-60
2023/01/10 03:08:10;;;;;;;;;22.20;21.40;;;;;12.30;61.50;97888.88;6313905;27;97051;-61
2023/01/10 03:11:15;;;;;;;;;22.00;19.60;;;;;12.31;61.81;97891.31;6315486;27;96873;-60
2023/01/10 03:14:22;;;;;;;;;21.60;19.00;;;;;12.30;61.30;97899.69;6303124;27;96355;-61
2023/01/10 03:17:28;;;;;;;;;23.00;21.00;;;;;12.30;61.32;97900.50;6316635;27;96362;-61
2023/01/10 03:20:37;;;;;;;;;22.00;19.00;;;;;12.04;61.43;97869.72;6296114;27;96318;-61
2023/01/10 03:23:41;;;;;;;;;21.75;19.75;;;;;12.26;61.97;97915.59;6310308;27;96264;-61
2023/01/10 03:26:52;;;;;;;;;23.00;21.00;;;;;12.25;61.81;97918.56;6317210;27;96306;-61
2023/01/10 03:30:02;;;;;;;;;21.80;20.00;;;;;12.23;61.57;97920.69;6315834;27;96285;-60
2023/01/10 03:33:06;;;;;;;;;23.60;21.00;;;;;12.25;61.53;97919.38;6296386;27;96472;-60
2023/01/10 03:36:21;;;;;;;;;21.00;20.00;;;;;12.29;61.28;97923.19;6297082;27;96216;-62
2023/01/10 03:39:34;;;;;;;;;22.20;21.20;;;;;12.23;61.52;97931.50;6307231;27;96740;-60
2023/01/10 03:46:20;;;;;;;;;20.00;19.00;;;;;12.15;61.45;97939.00;6296964;27;96461;-61
2023/01/10 03:49:26;;;;;;;;;22.20;20.20;;;;;12.13;61.63;97951.94;6305701;27;96409;-61
2023/01/10 03:52:34;;;;;;;;;23.00;21.00;;;;;12.14;61.62;97963.56;6298117;27;96791;-63
2023/01/10 03:55:39;;;;;;;;;22.60;20.20;;;;;12.12;61.70;97958.41;6300996;27;96299;-62
2023/01/10 03:58:43;;;;;;;;;21.80;20.40;;;;;12.14;61.55;97967.09;6316475;27;96232;-62
2023/01/10 04:01:47;;;;;;;;;20.00;19.40;;;;;12.18;61.55;97974.66;6300670;27;97533;-64
2023/01/10 04:04:51;;;;;;;;;23.00;21.00;;;;;12.14;61.47;97977.06;6309127;27;96204;-63
2023/01/10 04:07:55;;;;;;;;;23.00;19.40;;;;;12.14;61.20;97985.19;6316948;27;96876;-63
2023/01/10 04:10:59;;;;;;;;;18.25;17.25;;;;;12.04;61.45;97988.56;6314178;27;96377;-60
2023/01/10 04:14:02;;;;;;;;;19.00;16.50;;;;;12.03;61.03;97988.81;6307439;27;97253;-61
2023/01/10 04:17:06;;;;;;;;;20.00;18.00;;;;;12.03;61.11;97996.94;6315550;27;96080;-61
2023/01/10 04:20:10;;;;;;;;;17.00;16.00;;;;;12.06;60.47;97997.25;6316042;27;97575;-61
2023/01/10 04:23:15;;;;;;;;;15.40;13.00;;;;;12.08;60.03;98002.38;6313440;27;96934;-61
2023/01/10 04:26:19;;;;;;;;;15.00;14.00;;;;;12.03;59.51;97999.63;6304937;27;96673;-60
2023/01/10 04:29:23;;;;;;;;;13.20;12.00;;;;;11.92;59.13;98014.91;6308976;27;96384;-60
2023/01/10 04:32:26;;;;;;;;;12.60;11.00;;;;;11.83;58.92;98013.69;6309646;27;96260;-61
2023/01/10 04:35:29;;;;;;;;;11.00;10.00;;;;;11.73;58.81;98010.06;6315766;27;96413;-63
2023/01/10 04:38:34;;;;;;;;;9.00;8.00;;;;;11.75;58.31;98011.44;6315747;27;96801;-61
2023/01/10 04:41:37;;;;;;;;;9.00;8.50;;;;;11.69;58.96;98034.81;6305093;27;96556;-62
2023/01/10 04:44:41;;;;;;;;;8.20;8.00;;;;;11.72;58.36;98030.81;6310373;27;96156;-62
2023/01/10 04:47:49;;;;;;;;;7.50;7.00;;;;;11.64;58.24;98026.66;6310496;27;96247;-61
2023/01/10 04:50:54;;;;;;;;;8.40;8.40;;;;;11.64;58.57;98033.94;6308692;27;96231;-61
2023/01/10 04:53:58;;;;;;;;;10.00;8.00;;;;;11.61;59.00;98048.75;6294497;27;96513;-61
2023/01/10 04:57:04;;;;;;;;;18.75;17.00;;;;;11.58;58.92;98051.16;6315812;27;96200;-61
2023/01/10 05:00:09;;;;;;;;;7.20;7.00;;;;;11.52;59.05;98050.25;6302779;27;97118;-61
2023/01/10 05:03:12;;;;;;;;;9.00;9.00;;;;;11.50;59.70;98051.56;6308936;27;96798;-60
2023/01/10 05:06:17;;;;;;;;;7.00;7.00;;;;;11.53;59.49;98057.25;6308506;27;96272;-61
2023/01/10 05:09:21;;;;;;;;;10.00;10.00;;;;;11.54;59.37;98072.41;6304975;27;96132;-62
2023/01/10 05:12:25;;;;;;;;;12.40;11.00;;;;;11.52;59.23;98077.25;6306080;27;96436;-61
2023/01/10 05:15:28;;;;;;;;;8.40;8.00;;;;;11.50;59.60;98083.94;6306600;27;96222;-62
2023/01/10 05:18:31;;;;;;;;;9.00;8.00;;;;;11.52;59.13;98084.53;6314109;27;97260;-61
2023/01/10 05:21:35;;;;;;;;;8.25;8.25;;;;;11.46;59.29;98094.41;6310864;27;96499;-61
2023/01/10 05:24:39;;;;;;;;;8.00;8.00;;;;;11.42;59.21;98096.00;6300788;27;97594;-62
2023/01/10 05:27:43;;;;;;;;;8.00;7.00;;;;;11.38;59.05;98112.91;6303918;27;97257;-61
2023/01/10 05:30:47;;;;;;;;;6.40;6.40;;;;;11.32;58.90;98103.91;6305287;27;96329;-61
2023/01/10 05:33:52;;;;;;;;;6.00;5.20;;;;;11.21;58.34;98102.94;6313016;27;96287;-61
2023/01/10 05:36:55;;;;;;;;;5.50;4.00;;;;;11.26;58.34;98121.06;6311796;27;97107;-64
2023/01/10 05:40:00;;;;;;;;;7.00;6.00;;;;;11.25;58.39;98136.44;6316224;27;96361;-62
2023/01/10 05:43:03;;;;;;;;;6.00;5.00;;;;;11.26;58.48;98131.88;6308106;27;96949;-62
2023/01/10 05:46:07;;;;;;;;;5.00;5.00;;;;;11.24;58.42;98139.38;6315965;27;96525;-62
2023/01/10 05:49:10;;;;;;;;;8.00;8.00;;;;;11.21;59.06;98134.47;6296008;27;96955;-62
2023/01/10 05:52:14;;;;;;;;;6.60;6.00;;;;;11.17;59.08;98141.44;6308669;27;97997;-62
2023/01/10 05:55:19;;;;;;;;;5.00;5.00;;;;;11.15;58.88;98147.06;6308961;27;97298;-61
2023/01/10 05:58:23;;;;;;;;;7.00;7.00;;;;;11.19;59.14;98153.59;6294564;27;97014;-62
2023/01/10 06:01:27;;;;;;;;;9.40;7.40;;;;;11.21;59.00;98158.75;6306869;27;97123;-60
2023/01/10 06:04:30;;;;;;;;;6.80;5.20;;;;;11.24;59.39;98160.97;6310075;27;96792;-62
2023/01/10 06:07:33;;;;;;;;;7.00;7.00;;;;;11.26;59.58;98169.66;6307369;27;96210;-61
2023/01/10 06:10:38;;;;;;;;;7.00;7.00;;;;;11.27;60.11;98169.41;6313935;27;98975;-63
2023/01/10 06:13:44;;;;;;;;;9.00;8.00;;;;;11.26;59.96;98178.56;6302538;27;97211;-61
2023/01/10 06:16:47;;;;;;;;;7.00;7.00;;;;;11.26;59.35;98178.56;6306867;27;96316;-62
2023/01/10 06:19:51;;;;;;;;;9.00;8.00;;;;;11.26;59.12;98186.66;6311458;27;96242;-61
2023/01/10 06:22:55;;;;;;;;;6.75;6.75;;;;;11.30;58.76;98187.81;6304277;27;96269;-62
2023/01/10 06:25:59;;;;;;;;;6.40;5.60;;;;;11.26;57.74;98192.06;6303109;27;96705;-60
2023/01/10 06:29:03;;;;;;;;;7.00;6.00;;;;;11.24;57.74;98215.75;6297609;27;96722;-61
2023/01/10 06:32:06;;;;;;;;;7.00;6.00;;;;;11.19;57.82;98215.66;6306409;27;96660;-63
2023/01/10 06:35:10;;;;;;;;;5.60;5.60;;;;;10.97;58.02;98193.13;6306188;27;96576;-61
2023/01/10 06:38:13;;;;;;;;;7.67;7.00;;;;;11.14;57.38;98220.16;6308768;27;96967;-61
2023/01/10 06:41:18;;;;;;;;;8.00;8.00;;;;;11.09;57.85;98231.66;6308319;27;96870;-60
2023/01/10 06:44:22;;;;;;;;;6.00;6.00;;;;;11.05;57.02;98237.75;6312624;27;96533;-61
2023/01/10 06:47:25;;;;;;;;;4.00;4.00;;;;;10.93;57.72;98234.31;6315448;27;96361;-60
2023/01/10 06:50:29;;;;;;;;;5.00;5.00;;;;;11.03;57.77;98243.41;6315523;27;96395;-61
2023/01/10 06:53:32;;;;;;;;;11.00;9.50;;;;;10.99;57.93;98246.84;6305832;27;96231;-61
2023/01/10 06:56:37;;;;;;;;;6.40;6.00;;;;;10.94;57.80;98244.03;6309816;27;96885;-60
2023/01/10 06:59:40;;;;;;;;;5.00;5.00;;;;;10.88;58.36;98245.00;6305198;27;96393;-61
2023/01/10 07:02:44;;;;;;;;;5.60;4.60;;;;;10.85;58.69;98249.78;6312785;27;96315;-61
2023/01/10 07:05:47;;;;;;;;;6.50;6.25;;;;;10.84;59.01;98250.88;6308151;27;96319;-61
2023/01/10 07:08:51;;;;;;;;;6.00;6.00;;;;;10.83;59.10;98257.31;6299532;27;96222;-61
2023/01/10 07:11:55;;;;;;;;;7.00;6.75;;;;;10.93;58.31;98251.31;6305037;27;96456;-63
2023/01/10 07:14:59;;;;;;;;;6.50;6.00;;;;;10.94;57.75;98254.81;6307680;27;96344;-61
2023/01/10 07:18:03;;;;;;;;;5.25;4.25;;;;;10.89;57.16;98260.13;6307402;27;96361;-61
2023/01/10 07:21:08;;;;;;;;;3.60;3.00;;;;;10.81;56.68;98256.72;6301107;27;97122;-62
2023/01/10 07:24:14;;;;;;;;;4.00;4.00;;;;;10.79;56.75;98279.59;6301189;27;98196;-61
2023/01/10 07:27:18;;;;;;;;;3.00;2.40;;;;;10.73;56.53;98284.06;6301018;27;96698;-61
2023/01/10 07:30:23;;;;;;;;;5.60;5.00;;;;;10.63;56.91;98289.25;6306952;27;96224;-62
2023/01/10 07:33:28;;;;;;;;;2.00;2.00;;;;;10.59;57.44;98290.78;6315221;27;96300;-60
2023/01/10 07:36:34;;;;;;;;;4.00;3.00;;;;;10.60;57.47;98289.72;6310952;27;96449;-61
2023/01/10 07:39:41;;;;;;;;;4.00;3.00;;;;;10.64;57.61;98290.88;6306572;27;96199;-62
2023/01/10 07:42:45;;;;;;;;;4.80;4.80;;;;;10.72;57.40;98287.81;6308625;27;96802;-62
2023/01/10 07:45:49;;;;;;;;;2.00;2.00;;;;;10.73;57.33;98289.47;6299216;27;96215;-62
2023/01/10 07:48:52;;;;;;;;;2.00;2.00;;;;;10.72;57.39;98295.06;6307339;27;96351;-62
2023/01/10 07:51:55;;;;;;;;;3.40;2.40;;;;;10.70;57.09;98287.22;6314738;27;96299;-63
2023/01/10 07:54:59;;;;;;;;;3.00;3.00;;;;;10.71;57.54;98293.44;6315609;27;96497;-60
2023/01/10 07:58:05;;;;;;;;;4.75;3.75;;;;;10.70;57.48;98283.72;6302631;27;96833;-60
2023/01/10 08:01:09;;;;;;;;;4.50;4.00;;;;;10.73;57.21;98286.75;6301249;27;96620;-60
2023/01/10 08:04:13;;;;;;;;;3.40;3.40;;;;;10.74;57.19;98309.16;6303344;27;96435;-61
2023/01/10 08:07:16;;;;;;;;;4.00;3.50;;;;;10.73;57.68;98304.81;6304609;27;96727;-61
2023/01/10 08:10:20;;;;;;;;;3.40;3.00;;;;;10.76;57.47;98307.84;6303728;27;97211;-61
2023/01/10 08:13:24;;;;;;;;;5.60;5.00;;;;;10.79;57.39;98314.66;6302060;27;96770;-61
2023/01/10 08:16:27;;;;;;;;;3.00;3.00;;;;;10.81;57.79;98326.81;6311770;27;96864;-60
2023/01/10 08:19:31;;;;;;;;;4.40;4.00;;;;;10.85;57.68;98327.16;6286005;27;96796;-61
2023/01/10 08:22:35;;;;;;;;;5.00;5.00;;;;;10.89;57.39;98333.75;6299750;27;98186;-61
2023/01/10 08:25:38;;;;;;;;;4.75;4.00;;;;;10.91;57.41;98342.41;6303665;27;96593;-61
2023/01/10 08:28:43;;;;;;;;;6.00;4.60;;;;;10.92;57.66;98335.13;6304459;27;96300;-60
2023/01/10 08:31:46;;;;;;;;;5.20;5.00;;;;;10.95;57.46;98350.84;6303137;27;96655;-61
2023/01/10 08:34:50;;;;;;;;;4.00;4.00;;;;;10.94;57.82;98349.22;6298448;27;96787;-60
2023/01/10 08:37:53;;;;;;;;;7.60;7.60;;;;;10.94;57.99;98360.00;6301064;27;96366;-61
2023/01/10 08:40:57;;;;;;;;;5.00;4.00;;;;;10.88;58.27;98356.38;6299921;27;99978;-61
2023/01/10 08:44:01;;;;;;;;;5.00;5.00;;;;;10.77;58.62;98344.53;6312364;27;97118;-61
2023/01/10 08:47:05;;;;;;;;;5.25;5.00;;;;;10.83;58.67;98372.44;6298943;27;96363;-60
2023/01/10 08:50:09;;;;;;;;;4.00;4.00;;;;;10.75;58.93;98370.13;6310737;27;96366;-59
2023/01/10 08:53:13;;;;;;;;;3.25;3.25;;;;;10.69;59.01;98381.81;6304946;27;96464;-62
2023/01/10 08:56:16;;;;;;;;;4.50;4.00;;;;;10.71;58.96;98398.56;6313904;27;98835;-62
2023/01/10 08:59:21;;;;;;;;;7.00;5.50;;;;;10.62;59.25;98400.81;6314950;27;97499;-61
2023/01/10 09:02:25;;;;;;;;;8.00;7.60;;;;;10.50;59.43;98394.59;6311477;27;96804;-60
2023/01/10 09:05:28;;;;;;;;;5.00;4.00;;;;;10.49;59.73;98400.22;6316120;27;96388;-60
2023/01/10 09:08:32;;;;;;;;;6.20;4.40;;;;;10.48;59.92;98404.78;6298098;27;96456;-61
2023/01/10 09:11:36;;;;;;;;;5.40;5.40;;;;;10.53;59.88;98409.47;6302131;27;96420;-62
2023/01/10 09:14:41;;;;;;;;;6.00;6.00;;;;;10.57;60.21;98407.94;6306061;27;97060;-62
2023/01/10 09:17:44;;;;;;;;;7.00;6.00;;;;;10.63;60.28;98417.81;6309159;27;96792;-61
2023/01/10 09:20:47;;;;;;;;;5.60;5.00;;;;;10.65;60.42;98416.50;6310797;27;96405;-61
2023/01/10 09:23:50;;;;;;;;;7.00;7.00;;;;;10.69;60.33;98417.69;6310413;27;96354;-61
2023/01/10 09:26:54;;;;;;;;;6.20;6.00;;;;;10.73;60.62;98420.75;6314105;27;96738;-60
2023/01/10 09:29:59;;;;;;;;;8.60;7.00;;;;;10.82;60.67;98417.47;6315734;27;96456;-61
2023/01/10 09:33:02;;;;;;;;;6.00;5.80;;;;;10.85;60.13;98426.94;6309110;27;96677;-61
2023/01/10 09:36:07;;;;;;;;;9.00;8.00;;;;;10.96;60.10;98434.22;6295013;27;96388;-62
2023/01/10 09:39:12;;;;;;;;;9.00;7.50;;;;;11.00;60.38;98434.56;6314653;27;96352;-61
2023/01/10 09:42:31;;;;;;;;;8.00;8.00;;;;;11.04;60.20;98423.09;6315007;27;96564;-63
2023/01/10 09:45:45;;;;;;;;;8.40;7.40;;;;;11.12;60.18;98432.69;6312970;27;96745;-63
2023/01/10 09:48:56;;;;;;;;;9.00;8.40;;;;;11.15;60.37;98435.72;6296292;27;96805;-61
2023/01/10 09:52:01;;;;;;;;;12.00;11.00;;;;;11.08;59.95;98431.53;6312831;27;96551;-61
2023/01/10 09:55:18;;;;;;;;;9.00;8.00;;;;;11.08;60.10;98437.75;6314013;27;96812;-64
2023/01/10 09:58:26;;;;;;;;;10.00;9.20;;;;;11.02;60.28;98441.38;6320549;27;96201;-64
2023/01/10 10:01:36;;;;;;;;;9.20;9.00;;;;;10.98;60.47;98439.38;6314608;27;96588;-65
2023/01/10 10:04:41;;;;;;;;;12.00;10.60;;;;;10.99;60.62;98455.34;6314100;27;96395;-65
2023/01/10 10:07:45;;;;;;;;;11.00;9.40;;;;;10.96;60.82;98463.06;6312070;27;96862;-66
2023/01/10 10:11:00;;;;;;;;;12.00;10.50;;;;;10.97;60.93;98468.22;6309232;27;99155;-64
2023/01/10 10:14:11;;;;;;;;;11.00;10.00;;;;;10.90;61.07;98466.72;6310368;27;96326;-66
2023/01/10 10:17:36;;;;;;;;;12.40;11.40;;;;;10.86;61.66;98460.94;6311975;27;96482;-64
2023/01/10 10:20:51;;;;;;;;;12.80;11.20;;;;;10.90;61.94;98464.81;6312507;27;96557;-66
2023/01/10 10:24:07;;;;;;;;;10.25;10.25;;;;;10.98;61.94;98474.44;6318206;27;96533;-64
2023/01/10 10:27:23;;;;;;;;;13.00;12.00;;;;;11.02;61.62;98475.63;6315273;27;96557;-65
2023/01/10 10:30:43;;;;;;;;;15.40;14.40;;;;;10.89;61.61;98451.59;6316190;27;96995;-64
2023/01/10 10:33:59;;;;;;;;;14.75;13.75;;;;;11.09;61.04;98484.44;6314024;27;96374;-64
2023/01/10 10:37:09;;;;;;;;;18.40;16.40;;;;;11.12;61.16;98475.84;6314973;27;97949;-63
2023/01/10 10:40:19;;;;;;;;;16.50;15.50;;;;;11.09;61.26;98479.81;6310873;27;96438;-65
2023/01/10 10:43:27;;;;;;;;;14.00;14.00;;;;;11.07;61.23;98471.16;6313554;27;96306;-64
2023/01/10 10:46:31;;;;;;;;;14.80;12.00;;;;;10.96;61.41;98468.44;6309576;27;96520;-64
2023/01/10 10:49:42;;;;;;;;;15.75;14.00;;;;;11.08;61.13;98496.28;6310012;27;96334;-64
2023/01/10 10:52:46;;;;;;;;;15.50;13.75;;;;;11.07;61.23;98495.44;6305837;27;97310;-64
2023/01/10 10:55:51;;;;;;;;;14.40;14.00;;;;;11.05;61.38;98496.72;6314058;27;96357;-64
2023/01/10 10:58:58;;;;;;;;;13.00;12.75;;;;;11.08;61.42;98507.88;6310090;27;96215;-64
2023/01/10 11:02:02;;;;;;;;;12.20;12.00;;;;;11.12;61.38;98503.66;6313324;27;96690;-65
2023/01/10 11:05:15;;;;;;;;;16.60;15.60;;;;;11.18;61.16;98513.53;6308911;27;96253;-65
2023/01/10 11:08:21;;;;;;;;;13.40;12.00;;;;;11.24;60.81;98517.13;6313215;27;96568;-65
2023/01/10 11:11:28;;;;;;;;;12.00;10.60;;;;;11.18;60.58;98524.31;6313938;27;96884;-64
2023/01/10 11:14:44;;;;;;;;;9.60;8.60;;;;;11.21;60.51;98528.41;6311428;27;96274;-64
2023/01/10 11:18:05;;;;;;;;;7.25;6.75;;;;;11.09;59.68;98511.41;6315151;27;96403;-65
2023/01/10 11:21:14;;;;;;;;;7.40;7.00;;;;;11.26;59.68;98544.72;6316277;27;96999;-64
2023/01/10 11:24:25;;;;;;;;;6.40;6.00;;;;;11.27;58.41;98538.28;6315215;27;96612;-64
2023/01/10 11:27:31;;;;;;;;;4.00;2.60;;;;;11.28;57.92;98543.44;6315685;27;96283;-64
2023/01/10 11:30:35;;;;;;;;;7.00;6.00;;;;;11.26;58.50;98550.09;6315310;27;96326;-66
2023/01/10 11:33:41;;;;;;;;;5.00;4.00;;;;;11.21;58.73;98558.91;6326744;27;96836;-64
2023/01/10 11:36:55;;;;;;;;;5.00;4.00;;;;;11.19;58.38;98560.22;6318738;27;96120;-64
2023/01/10 11:40:16;;;;;;;;;7.00;6.00;;;;;11.22;57.95;98567.81;6321855;27;96839;-64
2023/01/10 11:43:29;;;;;;;;;4.00;3.60;;;;;11.24;58.01;98568.41;6326851;27;96245;-63
2023/01/10 11:46:34;;;;;;;;;6.00;5.00;;;;;11.17;58.00;98581.19;6309463;27;96336;-64
2023/01/10 11:49:40;;;;;;;;;6.00;6.00;;;;;11.15;58.33;98586.00;6308447;27;96360;-66
2023/01/10 11:52:47;;;;;;;;;3.00;3.00;;;;;11.08;58.47;98588.00;6324753;27;96232;-64
2023/01/10 11:55:52;;;;;;;;;3.50;3.50;;;;;11.09;58.51;98595.03;6308456;27;96235;-65
2023/01/10 11:58:58;;;;;;;;;2.00;2.00;;;;;11.10;58.59;98591.25;6321693;27;96505;-65
2023/01/10 12:02:11;;;;;;;;;4.00;4.00;;;;;11.09;58.42;98603.13;6318243;27;96911;-66
2023/01/10 12:05:20;;;;;;;;;4.80;4.00;;;;;11.04;58.65;98609.22;6317644;27;96258;-65
2023/01/10 12:08:31;;;;;;;;;4.00;4.00;;;;;11.08;58.81;98610.41;6318364;27;96311;-65
2023/01/10 12:11:34;;;;;;;;;4.00;4.00;;;;;10.97;58.61;98597.69;6319386;27;96627;-64
2023/01/10 12:14:38;;;;;;;;;3.75;3.00;;;;;11.06;58.95;98620.59;6318258;27;96440;-65
2023/01/10 12:17:41;;;;;;;;;3.00;3.00;;;;;11.11;58.77;98633.38;6316966;27;98372;-65
2023/01/10 12:20:48;;;;;;;;;3.00;3.00;;;;;11.10;59.08;98637.13;6324581;27;96187;-65
2023/01/10 12:23:55;;;;;;;;;5.60;5.00;;;;;10.90;59.49;98623.94;6322839;27;96994;-64
2023/01/10 12:27:01;;;;;;;;;5.00;5.00;;;;;10.93;59.83;98633.47;6324973;27;96880;-64
2023/01/10 12:30:12;;;;;;;;;4.00;3.40;;;;;11.04;59.72;98656.94;6325915;27;96283;-64
2023/01/10 12:33:19;;;;;;;;;4.00;4.00;;;;;11.01;60.19;98665.47;6326250;27;96301;-67
2023/01/10 12:36:33;;;;;;;;;3.80;3.80;;;;;11.02;60.28;98672.53;6325273;27;96256;-64
2023/01/10 12:39:43;;;;;;;;;4.50;4.50;;;;;11.06;60.15;98669.16;6319240;27;96292;-64
2023/01/10 12:46:22;;;;;;;;;4.00;4.00;;;;;11.11;59.88;98668.44;6315332;27;96396;-67
2023/01/10 12:49:52;;;;;;;;;5.00;5.00;;;;;11.17;59.97;98667.53;6316557;27;96336;-66
2023/01/10 12:53:00;;;;;;;;;6.00;6.00;;;;;11.05;59.90;98653.19;6317398;27;97042;-65
2023/01/10 12:56:10;;;;;;;;;5.00;5.00;;;;;11.20;60.28;98662.50;6309009;27;97219;-66
2023/01/10 12:59:20;;;;;;;;;7.00;7.00;;;;;11.22;59.54;98670.38;6318225;27;96110;-65
2023/01/10 13:02:43;;;;;;;;;7.00;6.00;;;;;11.22;59.35;98673.88;6312253;27;97011;-65
2023/01/10 13:05:48;;;;;;;;;5.25;5.25;;;;;11.22;59.64;98676.59;6320613;27;96249;-65
2023/01/10 13:08:52;;;;;;;;;6.00;6.00;;;;;11.16;59.98;98668.59;6319941;27;96181;-65
2023/01/10 13:12:02;;;;;;;;;7.00;6.00;;;;;11.17;59.67;98687.25;6322380;27;96562;-64
2023/01/10 13:15:15;;;;;;;;;7.00;6.60;;;;;11.22;59.27;98698.16;6313703;27;96915;-65
2023/01/10 13:18:25;;;;;;;;;7.00;6.00;;;;;11.20;59.45;98699.44;6308275;27;96268;-64
2023/01/10 13:21:30;;;;;;;;;8.00;7.60;;;;;11.21;59.88;98711.88;6323048;27;96221;-65
2023/01/10 13:24:33;;;;;;;;;8.00;7.00;;;;;11.19;59.71;98709.41;6320956;27;96322;-65
2023/01/10 13:27:38;;;;;;;;;8.00;8.00;;;;;11.19;59.96;98720.19;6321459;27;96175;-66
2023/01/10 13:30:42;;;;;;;;;8.00;8.00;;;;;11.08;59.99;98702.13;6321929;27;96516;-64
2023/01/10 13:33:53;;;;;;;;;8.60;8.00;;;;;11.25;59.74;98731.97;6323086;27;96485;-64
2023/01/10 13:37:00;;;;;;;;;6.80;5.80;;;;;11.22;60.02;98732.44;6322759;27;96175;-64
2023/01/10 13:40:05;;;;;;;;;10.00;9.00;;;;;11.25;60.06;98727.38;6320613;27;96212;-65
2023/01/10 13:44:01;;;;;;;;;9.00;9.00;;;;;11.31;60.09;98733.75;6323377;27;96292;-64
2023/01/10 13:47:04;;;;;;;;;9.00;9.00;;;;;11.33;59.60;98741.63;6268488;27;96645;-65
2023/01/10 13:50:49;;;;;;;;;12.00;9.00;;;;;11.41;59.65;98755.59;6265362;27;96752;-65
2023/01/10 13:53:57;;;;;;;;;10.20;10.00;;;;;11.43;59.30;98749.97;6285117;27;97533;-65
2023/01/10 13:57:00;;;;;;;;;12.00;12.00;;;;;11.41;59.57;98749.38;6320663;27;96378;-64
2023/01/10 14:03:49;;;;;;;;;11.00;10.00;;;;;11.41;59.73;98765.56;6319269;27;96248;-64
2023/01/10 14:06:55;;;;;;;;;10.60;10.00;;;;;11.42;59.69;98759.13;6317553;27;96204;-64
2023/01/10 14:10:02;;;;;;;;;13.00;13.00;;;;;11.39;59.65;98759.56;6317386;27;96246;-65
2023/01/10 14:13:22;;;;;;;;;10.60;10.00;;;;;11.39;59.58;98759.56;6319077;27;96301;-64
2023/01/10 14:16:46;;;;;;;;;11.80;11.00;;;;;11.37;59.59;98770.63;6324183;27;96757;-65
2023/01/10 14:20:19;;;;;;;;;13.00;13.00;;;;;11.35;59.71;98772.72;6326470;27;96212;-64
2023/01/10 14:23:29;;;;;;;;;13.00;12.40;;;;;11.34;59.77;98775.66;6319234;27;96695;-64
2023/01/10 14:26:35;;;;;;;;;13.75;12.75;;;;;11.38;59.68;98774.97;6319745;27;97119;-64
2023/01/10 14:29:39;;;;;;;;;14.40;14.00;;;;;11.38;59.10;98780.38;6325485;27;96366;-65
2023/01/10 14:32:46;;;;;;;;;14.40;13.40;;;;;11.36;59.46;98781.63;6325158;27;96590;-64
2023/01/10 14:35:52;;;;;;;;;15.60;14.00;;;;;11.26;59.82;98772.22;6326873;27;96220;-64
2023/01/10 14:38:58;;;;;;;;;16.60;15.60;;;;;11.25;60.40;98775.97;6311816;27;96293;-64
2023/01/10 14:42:07;;;;;;;;;23.60;22.00;;;;;11.22;60.75;98779.13;6322643;27;96866;-65
2023/01/10 14:45:25;;;;;;;;;21.00;20.00;;;;;11.22;60.88;98781.81;6320675;27;96482;-64
2023/01/10 14:48:33;;;;;;;;;19.20;16.20;;;;;11.23;60.77;98791.56;6319406;27;96282;-65
2023/01/10 14:51:36;;;;;;;;;16.50;16.50;;;;;11.17;60.66;98787.09;6325324;27;96310;-66